sensor_id;sensor_type;location;lat;lon;timestamp;pressure;altitude;pressure_sealevel;temperature;humidity
62864;BME280;48954;59.950;11.014;2022-07-17T00:00:18;99962.71;;;12.50;64.17
62864;BME280;48954;59.950;11.014;2022-07-17T00:03:01;99961.89;;;12.48;64.29
62864;BME280;48954;59.950;11.014;2022-07-17T00:05:27;99954.05;;;12.46;64.36
62864;BME280;48954;59.950;11.014;2022-07-17T00:07:52;99954.55;;;12.43;64.42
62864;BME280;48954;59.950;11.014;2022-07-17T00:10:18;99949.59;;;12.39;64.53
62864;BME280;48954;59.950;11.014;2022-07-17T00:12:44;99950.10;;;12.37;64.64
62864;BME280;48954;59.950;11.014;2022-07-17T00:15:10;99943.89;;;12.34;64.70
62864;BME280;48954;59.950;11.014;2022-07-17T00:17:36;99953.67;;;12.34;64.82
62864;BME280;48954;59.950;11.014;2022-07-17T00:20:02;99955.56;;;12.33;64.80
62864;BME280;48954;59.950;11.014;2022-07-17T00:22:28;99955.16;;;12.33;64.83
62864;BME280;48954;59.950;11.014;2022-07-17T00:24:54;99954.89;;;12.31;64.68
62864;BME280;48954;59.950;11.014;2022-07-17T00:27:19;99953.27;;;12.29;64.66
62864;BME280;48954;59.950;11.014;2022-07-17T00:29:47;99958.14;;;12.28;64.59
62864;BME280;48954;59.950;11.014;2022-07-17T00:32:12;99954.70;;;12.26;64.36
62864;BME280;48954;59.950;11.014;2022-07-17T00:34:38;99956.35;;;12.26;64.27
62864;BME280;48954;59.950;11.014;2022-07-17T00:37:03;99959.79;;;12.24;64.27
62864;BME280;48954;59.950;11.014;2022-07-17T00:39:29;99964.24;;;12.23;64.19
62864;BME280;48954;59.950;11.014;2022-07-17T00:41:55;99965.41;;;12.22;64.34
62864;BME280;48954;59.950;11.014;2022-07-17T00:44:20;99958.73;;;12.18;64.21
62864;BME280;48954;59.950;11.014;2022-07-17T00:46:46;99964.42;;;12.19;64.27
62864;BME280;48954;59.950;11.014;2022-07-17T00:49:13;99964.79;;;12.17;64.03
62864;BME280;48954;59.950;11.014;2022-07-17T00:51:38;99963.58;;;12.16;64.03
62864;BME280;48954;59.950;11.014;2022-07-17T00:54:04;99962.52;;;12.14;64.26
62864;BME280;48954;59.950;11.014;2022-07-17T00:56:31;99960.36;;;12.12;64.11
62864;BME280;48954;59.950;11.014;2022-07-17T00:59:00;99965.53;;;12.11;64.07
62864;BME280;48954;59.950;11.014;2022-07-17T01:01:25;99966.52;;;12.09;63.98
62864;BME280;48954;59.950;11.014;2022-07-17T01:03:51;99974.52;;;12.08;63.84
62864;BME280;48954;59.950;11.014;2022-07-17T01:06:17;99971.92;;;12.07;63.98
62864;BME280;48954;59.950;11.014;2022-07-17T01:08:43;99972.29;;;12.06;63.91
62864;BME280;48954;59.950;11.014;2022-07-17T01:11:08;99966.98;;;12.04;63.54
62864;BME280;48954;59.950;11.014;2022-07-17T01:13:34;99968.42;;;12.05;63.59
62864;BME280;48954;59.950;11.014;2022-07-17T01:16:00;99967.98;;;12.07;63.15
62864;BME280;48954;59.950;11.014;2022-07-17T01:18:26;99964.55;;;12.06;63.25
62864;BME280;48954;59.950;11.014;2022-07-17T01:20:52;99966.45;;;12.10;63.38
62864;BME280;48954;59.950;11.014;2022-07-17T01:23:18;99963.92;;;12.13;63.31
62864;BME280;48954;59.950;11.014;2022-07-17T01:25:51;99965.02;;;12.17;63.13
62864;BME280;48954;59.950;11.014;2022-07-17T01:28:18;99967.52;;;12.15;63.19
62864;BME280;48954;59.950;11.014;2022-07-17T01:30:49;99970.35;;;12.15;63.19
62864;BME280;48954;59.950;11.014;2022-07-17T01:33:16;99969.25;;;12.15;63.01
62864;BME280;48954;59.950;11.014;2022-07-17T01:35:44;99969.56;;;12.15;62.90
62864;BME280;48954;59.950;11.014;2022-07-17T01:38:10;99971.92;;;12.15;62.38
62864;BME280;48954;59.950;11.014;2022-07-17T01:40:37;99971.29;;;12.16;62.31
62864;BME280;48954;59.950;11.014;2022-07-17T01:43:03;99976.55;;;12.18;62.36
62864;BME280;48954;59.950;11.014;2022-07-17T01:45:30;99975.67;;;12.18;62.48
62864;BME280;48954;59.950;11.014;2022-07-17T01:47:56;99980.64;;;12.18;62.28
62864;BME280;48954;59.950;11.014;2022-07-17T01:50:22;99981.03;;;12.18;62.10
62864;BME280;48954;59.950;11.014;2022-07-17T01:52:48;99979.70;;;12.18;61.58
62864;BME280;48954;59.950;11.014;2022-07-17T01:55:15;99974.96;;;12.18;61.39
62864;BME280;48954;59.950;11.014;2022-07-17T01:57:42;99977.64;;;12.17;61.12
62864;BME280;48954;59.950;11.014;2022-07-17T02:00:12;99976.45;;;12.17;60.88
62864;BME280;48954;59.950;11.014;2022-07-17T02:02:39;99977.29;;;12.15;61.05
62864;BME280;48954;59.950;11.014;2022-07-17T02:05:05;99978.46;;;12.11;61.15
62864;BME280;48954;59.950;11.014;2022-07-17T02:07:31;99983.80;;;12.10;61.47
62864;BME280;48954;59.950;11.014;2022-07-17T02:09:58;99987.04;;;12.07;61.72
62864;BME280;48954;59.950;11.014;2022-07-17T02:12:24;99987.42;;;12.02;61.87
62864;BME280;48954;59.950;11.014;2022-07-17T02:14:50;99990.20;;;12.00;62.29
62864;BME280;48954;59.950;11.014;2022-07-17T02:17:17;99994.17;;;11.98;62.30
62864;BME280;48954;59.950;11.014;2022-07-17T02:19:43;99999.00;;;11.95;62.28
62864;BME280;48954;59.950;11.014;2022-07-17T02:22:09;100001.48;;;11.93;62.25
62864;BME280;48954;59.950;11.014;2022-07-17T02:24:36;100004.52;;;11.91;62.23
62864;BME280;48954;59.950;11.014;2022-07-17T02:27:02;100001.26;;;11.90;62.24
62864;BME280;48954;59.950;11.014;2022-07-17T02:29:28;100002.70;;;11.88;62.19
62864;BME280;48954;59.950;11.014;2022-07-17T02:31:55;100003.55;;;11.87;62.17
62864;BME280;48954;59.950;11.014;2022-07-17T02:34:21;100005.48;;;11.85;62.30
62864;BME280;48954;59.950;11.014;2022-07-17T02:36:47;100004.36;;;11.85;62.49
62864;BME280;48954;59.950;11.014;2022-07-17T02:39:14;100004.48;;;11.83;62.42
62864;BME280;48954;59.950;11.014;2022-07-17T02:41:40;100010.22;;;11.82;62.19
62864;BME280;48954;59.950;11.014;2022-07-17T02:44:06;100009.98;;;11.83;62.55
62864;BME280;48954;59.950;11.014;2022-07-17T02:46:33;100009.98;;;11.82;62.78
62864;BME280;48954;59.950;11.014;2022-07-17T02:48:59;100011.93;;;11.81;62.63
62864;BME280;48954;59.950;11.014;2022-07-17T02:51:25;100013.83;;;11.82;62.67
62864;BME280;48954;59.950;11.014;2022-07-17T02:53:51;100012.58;;;11.81;62.79
62864;BME280;48954;59.950;11.014;2022-07-17T02:56:21;100013.66;;;11.81;62.86
62864;BME280;48954;59.950;11.014;2022-07-17T02:58:47;100018.48;;;11.81;62.91
62864;BME280;48954;59.950;11.014;2022-07-17T03:01:13;100015.64;;;11.80;62.79
62864;BME280;48954;59.950;11.014;2022-07-17T03:03:39;100015.08;;;11.80;62.97
62864;BME280;48954;59.950;11.014;2022-07-17T03:06:06;100021.15;;;11.80;62.92
62864;BME280;48954;59.950;11.014;2022-07-17T03:08:32;100021.15;;;11.80;62.58
62864;BME280;48954;59.950;11.014;2022-07-17T03:10:59;100029.34;;;11.81;62.40
62864;BME280;48954;59.950;11.014;2022-07-17T03:13:25;100033.59;;;11.81;62.31
62864;BME280;48954;59.950;11.014;2022-07-17T03:15:51;100035.04;;;11.83;62.56
62864;BME280;48954;59.950;11.014;2022-07-17T03:18:18;100033.96;;;11.85;62.68
62864;BME280;48954;59.950;11.014;2022-07-17T03:20:44;100034.66;;;11.87;62.71
62864;BME280;48954;59.950;11.014;2022-07-17T03:23:10;100036.93;;;11.90;62.75
62864;BME280;48954;59.950;11.014;2022-07-17T03:25:37;100039.90;;;11.92;62.71
62864;BME280;48954;59.950;11.014;2022-07-17T03:28:03;100042.85;;;11.94;62.80
62864;BME280;48954;59.950;11.014;2022-07-17T03:30:30;100043.41;;;11.95;62.55
62864;BME280;48954;59.950;11.014;2022-07-17T03:32:56;100044.09;;;11.97;62.46
62864;BME280;48954;59.950;11.014;2022-07-17T03:35:22;100049.20;;;12.00;62.17
62864;BME280;48954;59.950;11.014;2022-07-17T03:37:49;100051.80;;;12.04;61.85
62864;BME280;48954;59.950;11.014;2022-07-17T03:40:15;100053.05;;;12.08;61.71
62864;BME280;48954;59.950;11.014;2022-07-17T03:42:41;100052.84;;;12.12;61.62
62864;BME280;48954;59.950;11.014;2022-07-17T03:45:08;100051.20;;;12.17;61.44
62864;BME280;48954;59.950;11.014;2022-07-17T03:47:34;100055.31;;;12.22;61.59
62864;BME280;48954;59.950;11.014;2022-07-17T03:50:01;100053.42;;;12.25;61.36
62864;BME280;48954;59.950;11.014;2022-07-17T03:52:27;100057.80;;;12.31;61.66
62864;BME280;48954;59.950;11.014;2022-07-17T03:54:54;100056.66;;;12.34;61.44
62864;BME280;48954;59.950;11.014;2022-07-17T03:57:20;100055.31;;;12.37;61.18
62864;BME280;48954;59.950;11.014;2022-07-17T03:59:46;100057.64;;;12.39;60.78
62864;BME280;48954;59.950;11.014;2022-07-17T04:02:13;100057.49;;;12.43;60.55
62864;BME280;48954;59.950;11.014;2022-07-17T04:04:39;100055.73;;;12.47;60.79
62864;BME280;48954;59.950;11.014;2022-07-17T04:07:05;100056.13;;;12.51;61.27
62864;BME280;48954;59.950;11.014;2022-07-17T04:09:32;100057.88;;;12.55;61.49
62864;BME280;48954;59.950;11.014;2022-07-17T04:11:58;100057.84;;;12.57;61.41
62864;BME280;48954;59.950;11.014;2022-07-17T04:14:24;100055.27;;;12.59;61.10
62864;BME280;48954;59.950;11.014;2022-07-17T04:16:51;100059.16;;;12.61;60.59
62864;BME280;48954;59.950;11.014;2022-07-17T04:19:17;100053.95;;;12.61;60.37
62864;BME280;48954;59.950;11.014;2022-07-17T04:21:43;100059.50;;;12.66;60.31
62864;BME280;48954;59.950;11.014;2022-07-17T04:24:09;100058.05;;;12.68;60.12
62864;BME280;48954;59.950;11.014;2022-07-17T04:26:36;100059.92;;;12.71;60.13
62864;BME280;48954;59.950;11.014;2022-07-17T04:29:02;100058.16;;;12.75;60.32
62864;BME280;48954;59.950;11.014;2022-07-17T04:31:28;100053.19;;;12.79;60.85
62864;BME280;48954;59.950;11.014;2022-07-17T04:33:55;100048.76;;;12.78;61.10
62864;BME280;48954;59.950;11.014;2022-07-17T04:36:21;100050.63;;;12.85;61.24
62864;BME280;48954;59.950;11.014;2022-07-17T04:38:47;100048.15;;;12.88;61.26
62864;BME280;48954;59.950;11.014;2022-07-17T04:41:14;100044.88;;;12.91;61.33
62864;BME280;48954;59.950;11.014;2022-07-17T04:43:40;100045.52;;;12.95;61.55
62864;BME280;48954;59.950;11.014;2022-07-17T04:46:06;100050.15;;;12.98;61.37
62864;BME280;48954;59.950;11.014;2022-07-17T04:48:33;100054.69;;;13.02;61.13
62864;BME280;48954;59.950;11.014;2022-07-17T04:50:59;100060.27;;;13.05;60.83
62864;BME280;48954;59.950;11.014;2022-07-17T04:53:25;100063.27;;;13.09;60.49
62864;BME280;48954;59.950;11.014;2022-07-17T04:55:51;100063.55;;;13.15;60.52
62864;BME280;48954;59.950;11.014;2022-07-17T04:58:18;100065.00;;;13.20;60.55
62864;BME280;48954;59.950;11.014;2022-07-17T05:00:44;100070.55;;;13.28;60.69
62864;BME280;48954;59.950;11.014;2022-07-17T05:03:10;100074.92;;;13.34;60.75
62864;BME280;48954;59.950;11.014;2022-07-17T05:05:37;100078.38;;;13.39;60.58
62864;BME280;48954;59.950;11.014;2022-07-17T05:08:03;100076.50;;;13.44;60.78
62864;BME280;48954;59.950;11.014;2022-07-17T05:10:29;100074.11;;;13.47;60.57
62864;BME280;48954;59.950;11.014;2022-07-17T05:12:56;100075.26;;;13.51;60.26
62864;BME280;48954;59.950;11.014;2022-07-17T05:15:22;100077.46;;;13.55;60.25
62864;BME280;48954;59.950;11.014;2022-07-17T05:17:48;100067.52;;;13.55;59.99
62864;BME280;48954;59.950;11.014;2022-07-17T05:20:15;100069.27;;;13.61;60.00
62864;BME280;48954;59.950;11.014;2022-07-17T05:22:41;100073.24;;;13.64;59.67
62864;BME280;48954;59.950;11.014;2022-07-17T05:25:08;100067.35;;;13.65;59.72
62864;BME280;48954;59.950;11.014;2022-07-17T05:27:34;100068.31;;;13.67;59.73
62864;BME280;48954;59.950;11.014;2022-07-17T05:30:01;100068.80;;;13.68;59.54
62864;BME280;48954;59.950;11.014;2022-07-17T05:32:27;100063.08;;;13.65;60.11
62864;BME280;48954;59.950;11.014;2022-07-17T05:34:53;100070.33;;;13.69;60.01
62864;BME280;48954;59.950;11.014;2022-07-17T05:37:20;100069.89;;;13.71;60.06
62864;BME280;48954;59.950;11.014;2022-07-17T05:39:46;100065.70;;;13.70;59.75
62864;BME280;48954;59.950;11.014;2022-07-17T05:42:12;100069.23;;;13.74;59.72
62864;BME280;48954;59.950;11.014;2022-07-17T05:44:44;100063.80;;;13.75;60.10
62864;BME280;48954;59.950;11.014;2022-07-17T05:47:10;100069.81;;;13.77;60.29
62864;BME280;48954;59.950;11.014;2022-07-17T05:49:36;100067.23;;;13.79;60.24
62864;BME280;48954;59.950;11.014;2022-07-17T05:52:03;100070.27;;;13.82;59.43
62864;BME280;48954;59.950;11.014;2022-07-17T05:54:29;100073.48;;;13.84;58.62
62864;BME280;48954;59.950;11.014;2022-07-17T05:56:56;100072.50;;;13.87;58.07
62864;BME280;48954;59.950;11.014;2022-07-17T05:59:22;100069.61;;;13.90;57.52
62864;BME280;48954;59.950;11.014;2022-07-17T06:01:48;100071.88;;;14.00;57.48
62864;BME280;48954;59.950;11.014;2022-07-17T06:04:14;100071.91;;;14.08;57.49
62864;BME280;48954;59.950;11.014;2022-07-17T06:06:41;100066.15;;;14.22;58.36
62864;BME280;48954;59.950;11.014;2022-07-17T06:09:07;100063.11;;;14.38;56.95
62864;BME280;48954;59.950;11.014;2022-07-17T06:11:34;100065.52;;;14.59;56.50
62864;BME280;48954;59.950;11.014;2022-07-17T06:14:00;100067.23;;;14.78;55.72
62864;BME280;48954;59.950;11.014;2022-07-17T06:16:26;100064.13;;;14.92;54.74
62864;BME280;48954;59.950;11.014;2022-07-17T06:18:53;100064.84;;;15.01;54.56
62864;BME280;48954;59.950;11.014;2022-07-17T06:21:19;100069.28;;;15.10;55.12
62864;BME280;48954;59.950;11.014;2022-07-17T06:23:45;100069.27;;;15.18;55.05
62864;BME280;48954;59.950;11.014;2022-07-17T06:26:12;100067.80;;;15.32;54.94
62864;BME280;48954;59.950;11.014;2022-07-17T06:28:38;100068.21;;;15.42;54.51
62864;BME280;48954;59.950;11.014;2022-07-17T06:31:05;100065.88;;;15.49;53.68
62864;BME280;48954;59.950;11.014;2022-07-17T06:33:31;100061.85;;;15.51;53.04
62864;BME280;48954;59.950;11.014;2022-07-17T06:35:57;100059.90;;;15.54;52.51
62864;BME280;48954;59.950;11.014;2022-07-17T06:38:23;100062.83;;;15.53;51.49
62864;BME280;48954;59.950;11.014;2022-07-17T06:40:50;100061.08;;;15.53;51.14
62864;BME280;48954;59.950;11.014;2022-07-17T06:43:16;100063.35;;;15.57;51.14
62864;BME280;48954;59.950;11.014;2022-07-17T06:45:42;100064.05;;;15.67;51.32
62864;BME280;48954;59.950;11.014;2022-07-17T06:48:09;100062.17;;;15.84;51.53
62864;BME280;48954;59.950;11.014;2022-07-17T06:50:35;100061.33;;;16.00;50.83
62864;BME280;48954;59.950;11.014;2022-07-17T06:53:01;100059.99;;;16.20;50.77
62864;BME280;48954;59.950;11.014;2022-07-17T06:55:28;100062.27;;;16.17;49.77
62864;BME280;48954;59.950;11.014;2022-07-17T06:57:55;100062.95;;;16.07;50.26
62864;BME280;48954;59.950;11.014;2022-07-17T07:00:22;100062.91;;;16.00;50.71
62864;BME280;48954;59.950;11.014;2022-07-17T07:02:48;100060.39;;;15.91;50.87
62864;BME280;48954;59.950;11.014;2022-07-17T07:05:14;100065.03;;;15.84;50.83
62864;BME280;48954;59.950;11.014;2022-07-17T07:07:41;100066.17;;;15.77;50.96
62864;BME280;48954;59.950;11.014;2022-07-17T07:10:07;100067.16;;;15.70;50.76
62864;BME280;48954;59.950;11.014;2022-07-17T07:12:37;100067.09;;;15.69;50.79
62864;BME280;48954;59.950;11.014;2022-07-17T07:15:04;100065.51;;;15.69;50.78
62864;BME280;48954;59.950;11.014;2022-07-17T07:17:30;100066.79;;;15.70;50.88
62864;BME280;48954;59.950;11.014;2022-07-17T07:19:58;100069.48;;;15.75;50.76
62864;BME280;48954;59.950;11.014;2022-07-17T07:22:24;100069.14;;;15.80;50.73
62864;BME280;48954;59.950;11.014;2022-07-17T07:24:50;100069.07;;;15.82;50.75
62864;BME280;48954;59.950;11.014;2022-07-17T07:27:17;100064.32;;;15.85;50.85
62864;BME280;48954;59.950;11.014;2022-07-17T07:29:43;100064.26;;;15.87;50.61
62864;BME280;48954;59.950;11.014;2022-07-17T07:32:10;100064.61;;;15.92;50.56
62864;BME280;48954;59.950;11.014;2022-07-17T07:34:36;100062.51;;;16.00;50.21
62864;BME280;48954;59.950;11.014;2022-07-17T07:37:03;100063.48;;;16.05;49.74
62864;BME280;48954;59.950;11.014;2022-07-17T07:39:29;100067.38;;;16.06;49.53
62864;BME280;48954;59.950;11.014;2022-07-17T07:41:56;100065.97;;;16.11;49.98
62864;BME280;48954;59.950;11.014;2022-07-17T07:44:22;100064.63;;;16.14;50.09
62864;BME280;48954;59.950;11.014;2022-07-17T07:46:49;100062.58;;;16.16;49.65
62864;BME280;48954;59.950;11.014;2022-07-17T07:49:15;100061.70;;;16.14;49.25
62864;BME280;48954;59.950;11.014;2022-07-17T07:51:41;100064.47;;;16.13;49.39
62864;BME280;48954;59.950;11.014;2022-07-17T07:54:08;100066.94;;;16.14;50.20
62864;BME280;48954;59.950;11.014;2022-07-17T07:56:34;100071.08;;;16.17;50.33
62864;BME280;48954;59.950;11.014;2022-07-17T07:59:01;100072.38;;;16.20;50.43
62864;BME280;48954;59.950;11.014;2022-07-17T08:01:27;100069.05;;;16.24;49.74
62864;BME280;48954;59.950;11.014;2022-07-17T08:03:53;100066.20;;;16.27;49.18
62864;BME280;48954;59.950;11.014;2022-07-17T08:06:20;100065.44;;;16.31;49.00
62864;BME280;48954;59.950;11.014;2022-07-17T08:08:46;100062.96;;;16.28;48.90
62864;BME280;48954;59.950;11.014;2022-07-17T08:11:12;100064.86;;;16.28;49.11
62864;BME280;48954;59.950;11.014;2022-07-17T08:13:39;100063.12;;;16.28;49.14
62864;BME280;48954;59.950;11.014;2022-07-17T08:16:05;100067.73;;;16.29;49.47
62864;BME280;48954;59.950;11.014;2022-07-17T08:18:32;100069.70;;;16.29;48.92
62864;BME280;48954;59.950;11.014;2022-07-17T08:20:58;100066.98;;;16.27;49.08
62864;BME280;48954;59.950;11.014;2022-07-17T08:23:25;100062.10;;;16.29;49.33
62864;BME280;48954;59.950;11.014;2022-07-17T08:25:51;100063.55;;;16.38;49.35
62864;BME280;48954;59.950;11.014;2022-07-17T08:28:17;100062.79;;;16.47;49.08
62864;BME280;48954;59.950;11.014;2022-07-17T08:30:44;100058.56;;;16.60;48.92
62864;BME280;48954;59.950;11.014;2022-07-17T08:33:10;100054.41;;;16.72;48.58
62864;BME280;48954;59.950;11.014;2022-07-17T08:35:37;100050.14;;;16.83;48.64
62864;BME280;48954;59.950;11.014;2022-07-17T08:38:04;100050.63;;;16.96;48.59
62864;BME280;48954;59.950;11.014;2022-07-17T08:40:33;100055.17;;;17.14;48.40
62864;BME280;48954;59.950;11.014;2022-07-17T08:43:00;100049.47;;;17.27;48.19
62864;BME280;48954;59.950;11.014;2022-07-17T08:45:27;100046.60;;;17.33;48.06
62864;BME280;48954;59.950;11.014;2022-07-17T08:47:55;100047.00;;;17.38;47.82
62864;BME280;48954;59.950;11.014;2022-07-17T08:50:31;100046.83;;;17.49;47.77
62864;BME280;48954;59.950;11.014;2022-07-17T08:52:58;100048.34;;;17.65;47.41
62864;BME280;48954;59.950;11.014;2022-07-17T08:55:25;100049.43;;;17.82;47.10
62864;BME280;48954;59.950;11.014;2022-07-17T08:57:51;100046.03;;;18.01;46.72
62864;BME280;48954;59.950;11.014;2022-07-17T09:00:20;100047.45;;;18.03;46.25
62864;BME280;48954;59.950;11.014;2022-07-17T09:02:59;100045.58;;;17.96;46.26
62864;BME280;48954;59.950;11.014;2022-07-17T09:05:31;100044.58;;;17.85;46.07
62864;BME280;48954;59.950;11.014;2022-07-17T09:07:59;100052.64;;;17.77;46.36
62864;BME280;48954;59.950;11.014;2022-07-17T09:10:40;100053.03;;;17.69;46.36
62864;BME280;48954;59.950;11.014;2022-07-17T09:13:30;100052.24;;;17.66;46.84
62864;BME280;48954;59.950;11.014;2022-07-17T09:16:09;100047.30;;;17.67;46.71
62864;BME280;48954;59.950;11.014;2022-07-17T09:19:02;100052.95;;;17.66;46.40
62864;BME280;48954;59.950;11.014;2022-07-17T09:21:29;100048.25;;;17.59;46.34
62864;BME280;48954;59.950;11.014;2022-07-17T09:24:04;100045.79;;;17.56;46.39
62864;BME280;48954;59.950;11.014;2022-07-17T09:26:32;100051.43;;;17.53;46.37
62864;BME280;48954;59.950;11.014;2022-07-17T09:29:03;100049.79;;;17.52;46.31
62864;BME280;48954;59.950;11.014;2022-07-17T09:31:32;100051.36;;;17.49;46.14
62864;BME280;48954;59.950;11.014;2022-07-17T09:33:59;100056.28;;;17.44;46.25
62864;BME280;48954;59.950;11.014;2022-07-17T09:36:26;100057.15;;;17.43;46.32
62864;BME280;48954;59.950;11.014;2022-07-17T09:38:53;100060.66;;;17.40;46.26
62864;BME280;48954;59.950;11.014;2022-07-17T09:41:22;100058.36;;;17.37;46.33
62864;BME280;48954;59.950;11.014;2022-07-17T09:46:31;100060.60;;;17.38;46.34
62864;BME280;48954;59.950;11.014;2022-07-17T09:49:05;100057.71;;;17.41;46.37
62864;BME280;48954;59.950;11.014;2022-07-17T09:51:34;100055.17;;;17.45;46.38
62864;BME280;48954;59.950;11.014;2022-07-17T09:54:03;100050.23;;;17.56;46.39
62864;BME280;48954;59.950;11.014;2022-07-17T09:56:33;100048.81;;;17.67;46.28
62864;BME280;48954;59.950;11.014;2022-07-17T10:01:28;100044.44;;;17.77;46.27
62864;BME280;48954;59.950;11.014;2022-07-17T10:03:55;100044.81;;;17.88;46.38
62864;BME280;48954;59.950;11.014;2022-07-17T10:06:23;100045.25;;;17.94;46.16
62864;BME280;48954;59.950;11.014;2022-07-17T10:08:51;100053.52;;;17.95;45.93
62864;BME280;48954;59.950;11.014;2022-07-17T10:11:20;100055.70;;;17.86;45.86
62864;BME280;48954;59.950;11.014;2022-07-17T10:13:49;100059.55;;;17.68;45.96
62864;BME280;48954;59.950;11.014;2022-07-17T10:16:26;100058.66;;;17.56;46.36
62864;BME280;48954;59.950;11.014;2022-07-17T10:18:53;100059.55;;;17.49;46.63
62864;BME280;48954;59.950;11.014;2022-07-17T10:21:21;100056.77;;;17.45;46.78
62864;BME280;48954;59.950;11.014;2022-07-17T10:29:08;100058.13;;;17.35;46.85
62864;BME280;48954;59.950;11.014;2022-07-17T10:31:52;100056.86;;;17.23;46.87
62864;BME280;48954;59.950;11.014;2022-07-17T10:34:18;100055.17;;;17.14;47.14
62864;BME280;48954;59.950;11.014;2022-07-17T10:36:48;100051.20;;;17.06;47.19
62864;BME280;48954;59.950;11.014;2022-07-17T10:39:19;100054.30;;;16.99;47.26
62864;BME280;48954;59.950;11.014;2022-07-17T10:41:57;100056.27;;;16.94;47.41
62864;BME280;48954;59.950;11.014;2022-07-17T10:44:29;100057.77;;;16.93;47.74
62864;BME280;48954;59.950;11.014;2022-07-17T10:46:56;100055.23;;;16.92;47.88
62864;BME280;48954;59.950;11.014;2022-07-17T10:49:24;100057.36;;;16.87;47.87
62864;BME280;48954;59.950;11.014;2022-07-17T10:51:51;100052.29;;;16.82;48.12
62864;BME280;48954;59.950;11.014;2022-07-17T10:54:18;100058.23;;;16.78;48.24
62864;BME280;48954;59.950;11.014;2022-07-17T10:56:45;100054.73;;;16.80;48.24
62864;BME280;48954;59.950;11.014;2022-07-17T10:59:12;100060.06;;;16.82;48.35
62864;BME280;48954;59.950;11.014;2022-07-17T11:01:39;100055.45;;;16.77;48.31
62864;BME280;48954;59.950;11.014;2022-07-17T11:04:05;100058.55;;;16.79;48.53
62864;BME280;48954;59.950;11.014;2022-07-17T11:06:34;100056.73;;;16.80;48.74
62864;BME280;48954;59.950;11.014;2022-07-17T11:09:04;100054.20;;;16.86;48.82
62864;BME280;48954;59.950;11.014;2022-07-17T11:14:16;100053.98;;;16.96;49.08
62864;BME280;48954;59.950;11.014;2022-07-17T11:16:57;100055.73;;;16.98;49.06
62864;BME280;48954;59.950;11.014;2022-07-17T11:19:31;100056.77;;;16.98;49.23
62864;BME280;48954;59.950;11.014;2022-07-17T11:22:02;100052.70;;;17.00;49.25
62864;BME280;48954;59.950;11.014;2022-07-17T11:24:36;100054.45;;;17.05;49.12
62864;BME280;48954;59.950;11.014;2022-07-17T11:27:03;100057.96;;;17.09;49.19
62864;BME280;48954;59.950;11.014;2022-07-17T11:29:29;100060.58;;;17.15;49.29
62864;BME280;48954;59.950;11.014;2022-07-17T11:31:56;100059.47;;;17.18;49.08
62864;BME280;48954;59.950;11.014;2022-07-17T11:34:26;100061.05;;;17.18;48.97
62864;BME280;48954;59.950;11.014;2022-07-17T11:36:59;100055.25;;;17.16;48.98
62864;BME280;48954;59.950;11.014;2022-07-17T11:39:25;100057.33;;;17.13;49.08
62864;BME280;48954;59.950;11.014;2022-07-17T11:41:53;100061.14;;;17.11;49.18
62864;BME280;48954;59.950;11.014;2022-07-17T11:44:21;100062.40;;;17.14;49.37
62864;BME280;48954;59.950;11.014;2022-07-17T11:46:51;100058.66;;;17.18;49.48
62864;BME280;48954;59.950;11.014;2022-07-17T11:49:34;100062.09;;;17.26;49.32
62864;BME280;48954;59.950;11.014;2022-07-17T11:52:16;100062.33;;;17.35;49.33
62864;BME280;48954;59.950;11.014;2022-07-17T11:54:50;100057.55;;;17.48;49.25
62864;BME280;48954;59.950;11.014;2022-07-17T11:57:18;100057.16;;;17.62;49.06
62864;BME280;48954;59.950;11.014;2022-07-17T11:59:46;100049.13;;;17.77;49.02
62864;BME280;48954;59.950;11.014;2022-07-17T12:02:14;100046.39;;;17.92;48.57
62864;BME280;48954;59.950;11.014;2022-07-17T12:04:55;100045.27;;;18.14;48.46
62864;BME280;48954;59.950;11.014;2022-07-17T12:07:24;100042.60;;;18.45;47.99
62864;BME280;48954;59.950;11.014;2022-07-17T12:09:51;100040.23;;;18.60;47.33
62864;BME280;48954;59.950;11.014;2022-07-17T12:12:26;100039.80;;;18.69;47.10
62864;BME280;48954;59.950;11.014;2022-07-17T12:14:53;100032.43;;;18.75;46.67
62864;BME280;48954;59.950;11.014;2022-07-17T12:17:21;100029.04;;;18.82;46.24
62864;BME280;48954;59.950;11.014;2022-07-17T12:19:48;100024.73;;;18.83;45.90
62864;BME280;48954;59.950;11.014;2022-07-17T12:22:14;100024.16;;;18.97;45.64
62864;BME280;48954;59.950;11.014;2022-07-17T12:24:44;100016.70;;;19.24;45.71
62864;BME280;48954;59.950;11.014;2022-07-17T12:27:12;100013.95;;;19.36;45.17
62864;BME280;48954;59.950;11.014;2022-07-17T12:29:44;100011.29;;;19.41;45.19
62864;BME280;48954;59.950;11.014;2022-07-17T12:32:16;100009.64;;;19.47;44.87
62864;BME280;48954;59.950;11.014;2022-07-17T12:34:46;100005.75;;;19.55;44.57
62864;BME280;48954;59.950;11.014;2022-07-17T12:37:18;100012.48;;;19.59;44.33
62864;BME280;48954;59.950;11.014;2022-07-17T12:39:48;100002.86;;;19.58;44.45
62864;BME280;48954;59.950;11.014;2022-07-17T12:42:15;99999.97;;;19.60;44.09
62864;BME280;48954;59.950;11.014;2022-07-17T12:44:43;99990.38;;;19.61;44.70
62864;BME280;48954;59.950;11.014;2022-07-17T12:47:10;99990.67;;;19.71;44.57
62864;BME280;48954;59.950;11.014;2022-07-17T12:49:36;99986.14;;;19.77;44.07
62864;BME280;48954;59.950;11.014;2022-07-17T12:52:02;99987.13;;;19.82;43.87
62864;BME280;48954;59.950;11.014;2022-07-17T12:54:29;99987.95;;;19.86;44.10
62864;BME280;48954;59.950;11.014;2022-07-17T12:56:55;99980.29;;;20.00;44.48